createdAt,value
2023-01-22T00:01:03.318Z,99073.30
2023-01-22T00:03:30.405Z,99073.85
2023-01-22T00:05:57.420Z,99073.17
2023-01-22T00:08:24.151Z,99075.33
2023-01-22T00:10:52.264Z,99076.13
2023-01-22T00:13:20.184Z,99080.48
2023-01-22T00:15:47.341Z,99078.17
2023-01-22T00:18:14.604Z,99082.23
2023-01-22T00:20:41.874Z,99081.86
2023-01-22T00:23:08.735Z,99078.86
2023-01-22T00:25:35.854Z,99083.02
2023-01-22T00:28:03.171Z,99089.39
2023-01-22T00:30:30.254Z,99093.02
2023-01-22T00:32:57.467Z,99096.02
2023-01-22T00:35:24.615Z,99097.95
2023-01-22T00:37:51.386Z,99102.54
2023-01-22T00:40:18.927Z,99100.59
2023-01-22T00:42:46.055Z,99095.40
2023-01-22T00:45:15.990Z,99098.67
2023-01-22T00:47:43.119Z,99098.41
2023-01-22T00:50:10.467Z,99097.98
2023-01-22T00:52:40.379Z,99101.61
2023-01-22T00:55:07.776Z,99104.52
2023-01-22T00:57:35.228Z,99107.75
2023-01-22T01:00:02.504Z,99105.09
2023-01-22T01:02:29.588Z,99109.96
2023-01-22T01:04:57.367Z,99112.78
2023-01-22T01:07:24.577Z,99112.36
2023-01-22T01:09:51.436Z,99108.40
2023-01-22T01:12:18.482Z,99108.05
2023-01-22T01:14:45.440Z,99114.42
2023-01-22T01:17:12.470Z,99112.83
2023-01-22T01:19:39.410Z,99116.71
2023-01-22T01:22:08.917Z,99109.33
2023-01-22T01:24:36.867Z,99105.05
2023-01-22T01:27:03.924Z,99101.46
2023-01-22T01:29:31.176Z,99107.13
2023-01-22T01:31:58.379Z,99111.42
2023-01-22T01:34:25.577Z,99109.07
2023-01-22T01:36:52.653Z,99107.94
2023-01-22T01:39:30.158Z,99106.70
2023-01-22T01:41:59.669Z,99110.65
2023-01-22T01:44:36.136Z,99112.05
2023-01-22T01:47:07.490Z,99110.69
2023-01-22T01:49:37.655Z,99113.07
2023-01-22T01:52:10.009Z,99113.36
2023-01-22T01:54:37.896Z,99116.39
2023-01-22T01:57:08.096Z,99117.14
2023-01-22T01:59:35.694Z,99122.50
2023-01-22T02:02:03.976Z,99121.41
2023-01-22T02:04:31.177Z,99123.23
2023-01-22T02:06:58.187Z,99125.91
2023-01-22T02:09:25.496Z,99131.30
2023-01-22T02:11:53.764Z,99141.67
2023-01-22T02:14:23.661Z,99144.60
2023-01-22T02:17:00.475Z,99146.55
2023-01-22T02:19:27.588Z,99147.36
2023-01-22T02:21:54.526Z,99147.34
2023-01-22T02:24:21.572Z,99146.98
2023-01-22T02:26:48.612Z,99145.69
2023-01-22T02:29:15.700Z,99149.74
2023-01-22T02:31:42.988Z,99151.16
2023-01-22T02:34:10.809Z,99151.94
2023-01-22T02:36:38.816Z,99155.10
2023-01-22T02:39:06.606Z,99155.04
2023-01-22T02:41:33.755Z,99155.23
2023-01-22T02:44:01.051Z,99158.99
2023-01-22T02:46:28.455Z,99155.10
2023-01-22T02:48:55.618Z,99155.16
2023-01-22T02:51:22.566Z,99157.35
2023-01-22T02:53:49.701Z,99149.48
2023-01-22T02:56:16.672Z,99152.95
2023-01-22T02:58:43.476Z,99150.15
2023-01-22T03:01:20.788Z,99154.45
2023-01-22T03:03:48.661Z,99143.79
2023-01-22T03:06:16.439Z,99141.24
2023-01-22T03:08:43.948Z,99143.86
2023-01-22T03:11:13.314Z,99147.64
2023-01-22T03:13:59.056Z,99155.05
2023-01-22T03:16:44.528Z,99158.77
2023-01-22T03:19:29.876Z,99158.41
2023-01-22T03:21:56.614Z,99159.84
2023-01-22T03:24:23.495Z,99161.13
2023-01-22T03:26:50.541Z,99156.94
2023-01-22T03:29:17.658Z,99155.35
2023-01-22T03:31:48.901Z,99153.66
2023-01-22T03:34:16.899Z,99149.29
2023-01-22T03:36:44.005Z,99153.64
2023-01-22T03:39:11.456Z,99153.08
2023-01-22T03:41:38.195Z,99155.89
2023-01-22T03:44:05.254Z,99154.13
2023-01-22T03:46:32.396Z,99152.06
2023-01-22T03:48:59.232Z,99151.84
2023-01-22T03:51:26.068Z,99151.02
2023-01-22T03:53:53.055Z,99151.92
2023-01-22T03:56:21.217Z,99154.02
2023-01-22T03:58:48.548Z,99152.58
2023-01-22T04:01:19.929Z,99145.23
2023-01-22T04:03:46.929Z,99150.82
2023-01-22T04:06:13.899Z,99159.09
2023-01-22T04:08:41.775Z,99159.33
2023-01-22T04:11:09.028Z,99158.80
2023-01-22T04:13:37.296Z,99156.33
2023-01-22T04:16:04.937Z,99150.64
2023-01-22T04:18:31.967Z,99151.02
2023-01-22T04:20:58.807Z,99152.34
2023-01-22T04:23:25.902Z,99152.50
2023-01-22T04:25:53.415Z,99153.06
2023-01-22T04:28:20.658Z,99147.80
2023-01-22T04:30:48.360Z,99145.91
2023-01-22T04:33:15.268Z,99148.46
2023-01-22T04:35:42.821Z,99147.85
2023-01-22T04:38:10.816Z,99145.34
2023-01-22T04:40:37.639Z,99147.96
2023-01-22T04:43:05.946Z,99146.52
2023-01-22T04:45:33.377Z,99154.48
2023-01-22T04:48:00.498Z,99161.16
2023-01-22T04:50:29.185Z,99160.35
2023-01-22T04:52:56.756Z,99160.91
2023-01-22T04:55:24.617Z,99159.58
2023-01-22T04:57:54.105Z,99158.73
2023-01-22T05:00:21.186Z,99156.45
2023-01-22T05:02:48.157Z,99150.27
2023-01-22T05:05:15.254Z,99150.85
2023-01-22T05:07:42.080Z,99161.45
2023-01-22T05:10:09.230Z,99162.16
2023-01-22T05:12:36.217Z,99158.61
2023-01-22T05:15:07.269Z,99161.17
2023-01-22T05:17:39.281Z,99165.95
2023-01-22T05:20:06.654Z,99173.02
2023-01-22T05:22:33.570Z,99173.08
2023-01-22T05:25:00.331Z,99170.00
2023-01-22T05:27:27.175Z,99167.86
2023-01-22T05:29:53.885Z,99166.11
2023-01-22T05:32:20.855Z,99170.09
2023-01-22T05:34:47.775Z,99179.89
2023-01-22T05:37:14.614Z,99184.59
2023-01-22T05:39:41.450Z,99187.16
2023-01-22T05:42:08.217Z,99192.51
2023-01-22T05:44:35.176Z,99190.73
2023-01-22T05:47:01.974Z,99187.79
2023-01-22T05:49:28.714Z,99193.02
2023-01-22T05:51:55.458Z,99195.23
2023-01-22T05:54:22.293Z,99198.41
2023-01-22T05:56:49.210Z,99200.58
2023-01-22T05:59:16.344Z,99193.34
2023-01-22T06:01:43.149Z,99191.52
2023-01-22T06:04:09.978Z,99195.79
2023-01-22T06:06:36.695Z,99194.82
2023-01-22T06:09:03.855Z,99198.29
2023-01-22T06:11:30.700Z,99203.57
2023-01-22T06:13:57.538Z,99200.68
2023-01-22T06:16:24.367Z,99200.82
2023-01-22T06:18:51.212Z,99194.23
2023-01-22T06:21:17.994Z,99199.66
2023-01-22T06:23:45.482Z,99203.35
2023-01-22T06:26:13.272Z,99206.90
2023-01-22T06:28:40.428Z,99211.10
2023-01-22T06:31:08.340Z,99214.81
2023-01-22T06:33:35.832Z,99215.61
2023-01-22T06:36:03.692Z,99218.70
2023-01-22T06:38:30.949Z,99216.31
2023-01-22T06:40:59.486Z,99215.61
2023-01-22T06:43:27.521Z,99219.54
2023-01-22T06:45:55.171Z,99224.31
2023-01-22T06:48:34.623Z,99220.58
2023-01-22T06:51:08.962Z,99225.25
2023-01-22T06:53:35.948Z,99226.90
2023-01-22T06:56:02.893Z,99226.17
2023-01-22T06:58:29.833Z,99221.59
2023-01-22T07:01:00.481Z,99226.48
2023-01-22T07:03:27.752Z,99222.30
2023-01-22T07:05:58.696Z,99225.00
2023-01-22T07:08:26.105Z,99234.73
2023-01-22T07:10:53.419Z,99234.87
2023-01-22T07:13:20.881Z,99235.48
2023-01-22T07:15:48.589Z,99242.36
2023-01-22T07:18:17.032Z,99250.80
2023-01-22T07:20:44.383Z,99249.05
2023-01-22T07:23:11.147Z,99249.92
2023-01-22T07:25:38.089Z,99246.02
2023-01-22T07:28:05.930Z,99250.07
2023-01-22T07:30:33.017Z,99259.27
2023-01-22T07:33:00.797Z,99271.48
2023-01-22T07:35:28.519Z,99276.23
2023-01-22T07:37:57.746Z,99280.25
2023-01-22T07:40:25.681Z,99290.40
2023-01-22T07:42:53.249Z,99283.23
2023-01-22T07:45:20.687Z,99277.10
2023-01-22T07:47:55.093Z,99276.04
2023-01-22T07:50:26.659Z,99284.85
2023-01-22T07:52:54.051Z,99289.66
2023-01-22T07:55:21.814Z,99295.02
2023-01-22T07:57:48.624Z,99292.04
2023-01-22T08:00:16.713Z,99294.56
2023-01-22T08:02:44.033Z,99296.13
2023-01-22T08:05:13.641Z,99293.74
2023-01-22T08:07:40.584Z,99298.29
2023-01-22T08:10:08.011Z,99294.52
2023-01-22T08:12:36.929Z,99293.05
2023-01-22T08:15:04.145Z,99288.73
2023-01-22T08:17:31.025Z,99289.27
2023-01-22T08:19:57.853Z,99288.64
2023-01-22T08:22:24.699Z,99285.23
2023-01-22T08:24:52.071Z,99279.30
2023-01-22T08:27:18.872Z,99282.16
2023-01-22T08:29:45.932Z,99283.10
2023-01-22T08:32:12.802Z,99279.90
2023-01-22T08:34:39.906Z,99280.09
2023-01-22T08:37:07.887Z,99284.08
2023-01-22T08:39:35.105Z,99288.86
2023-01-22T08:42:02.230Z,99294.00
2023-01-22T08:44:29.353Z,99298.40
2023-01-22T08:47:03.505Z,99300.00
2023-01-22T08:49:31.573Z,99296.91
2023-01-22T08:51:58.953Z,99301.94
2023-01-22T08:54:26.955Z,99294.23
2023-01-22T08:56:53.870Z,99300.30
2023-01-22T08:59:21.032Z,99297.31
2023-01-22T09:01:47.923Z,99296.54
2023-01-22T09:04:14.810Z,99298.08
2023-01-22T09:06:41.745Z,99301.16
2023-01-22T09:09:08.901Z,99303.95
2023-01-22T09:11:35.980Z,99306.52
2023-01-22T09:14:04.067Z,99313.50
2023-01-22T09:16:33.044Z,99319.90
2023-01-22T09:19:00.352Z,99318.95
2023-01-22T09:21:27.618Z,99313.75
2023-01-22T09:23:54.344Z,99315.48
2023-01-22T09:26:21.335Z,99315.79
2023-01-22T09:28:48.605Z,99307.08
2023-01-22T09:31:15.836Z,99312.61
2023-01-22T09:33:43.006Z,99310.30
2023-01-22T09:36:14.527Z,99310.10
2023-01-22T09:38:41.936Z,99312.50
2023-01-22T09:41:19.807Z,99310.56
2023-01-22T09:43:50.203Z,99311.95
2023-01-22T09:46:23.654Z,99310.73
2023-01-22T09:48:57.094Z,99311.14
2023-01-22T09:51:24.462Z,99310.42
2023-01-22T09:53:54.513Z,99316.44
2023-01-22T09:56:22.936Z,99317.91
2023-01-22T09:58:51.968Z,99321.25
2023-01-22T10:01:20.074Z,99322.77
2023-01-22T10:03:50.171Z,99322.91
2023-01-22T10:06:19.487Z,99325.66
2023-01-22T10:08:54.687Z,99329.09
2023-01-22T10:11:21.528Z,99336.45
2023-01-22T10:13:50.291Z,99344.31
2023-01-22T10:16:17.373Z,99341.41
2023-01-22T10:19:20.295Z,99336.07
2023-01-22T10:21:53.341Z,99338.29
2023-01-22T10:24:20.190Z,99339.40
2023-01-22T10:26:47.032Z,99336.20
2023-01-22T10:29:21.513Z,99333.22
2023-01-22T10:31:52.617Z,99332.02
2023-01-22T10:34:22.604Z,99327.25
2023-01-22T10:36:50.875Z,99327.77
2023-01-22T10:39:18.439Z,99324.35
2023-01-22T10:41:46.813Z,99325.84
2023-01-22T10:44:14.046Z,99324.33
2023-01-22T10:46:41.211Z,99329.43
2023-01-22T10:49:15.012Z,99330.41
2023-01-22T10:51:44.367Z,99329.52
2023-01-22T10:54:20.269Z,99325.05
2023-01-22T10:56:48.037Z,99318.94
2023-01-22T10:59:20.633Z,99320.41
2023-01-22T11:01:48.687Z,99320.25
2023-01-22T11:04:22.145Z,99328.79
2023-01-22T11:06:54.664Z,99324.37
2023-01-22T11:09:26.860Z,99322.59
2023-01-22T11:12:00.908Z,99320.17
2023-01-22T11:14:30.145Z,99320.25
2023-01-22T11:16:58.918Z,99316.55
2023-01-22T11:19:36.923Z,99316.53
2023-01-22T11:22:07.166Z,99315.04
2023-01-22T11:24:33.967Z,99318.52
2023-01-22T11:27:07.413Z,99327.55
2023-01-22T11:29:37.804Z,99324.02
2023-01-22T11:32:22.491Z,99327.52
2023-01-22T11:34:56.027Z,99325.52
2023-01-22T11:37:34.753Z,99320.77
2023-01-22T11:40:02.052Z,99317.55
2023-01-22T11:42:50.036Z,99323.56
2023-01-22T11:45:19.656Z,99315.79
2023-01-22T11:47:49.460Z,99309.99
2023-01-22T11:50:31.043Z,99305.98
2023-01-22T11:53:16.285Z,99311.42
2023-01-22T11:55:46.445Z,99318.05
2023-01-22T11:58:21.814Z,99317.38
2023-01-22T12:01:01.613Z,99319.05
2023-01-22T12:03:49.283Z,99318.27
2023-01-22T12:06:40.251Z,99313.90
2023-01-22T12:09:09.885Z,99317.04
2023-01-22T12:11:46.366Z,99324.59
2023-01-22T12:14:24.729Z,99319.95
2023-01-22T12:16:55.171Z,99328.42
2023-01-22T12:19:38.464Z,99337.13
2023-01-22T12:22:31.645Z,99347.85
2023-01-22T12:25:01.416Z,99348.71
2023-01-22T12:27:28.284Z,99341.36
2023-01-22T12:29:58.204Z,99331.77
2023-01-22T12:32:26.203Z,99336.77
2023-01-22T12:35:13.690Z,99342.81
2023-01-22T12:37:41.012Z,99347.72
2023-01-22T12:40:08.189Z,99346.26
2023-01-22T12:42:44.036Z,99347.60
2023-01-22T12:45:23.805Z,99349.33
2023-01-22T12:48:11.169Z,99346.14
2023-01-22T12:50:48.654Z,99352.41
2023-01-22T12:53:30.068Z,99352.87
2023-01-22T12:56:00.010Z,99354.29
2023-01-22T12:58:28.494Z,99363.61
2023-01-22T13:01:23.011Z,99367.85
2023-01-22T13:04:00.605Z,99370.92
2023-01-22T13:06:38.672Z,99370.77
2023-01-22T13:09:06.922Z,99376.45
2023-01-22T13:11:35.506Z,99383.75
2023-01-22T13:14:17.970Z,99389.13
2023-01-22T13:17:11.273Z,99386.05
2023-01-22T13:19:50.123Z,99388.12
2023-01-22T13:22:22.156Z,99380.10
2023-01-22T13:24:58.791Z,99382.58
2023-01-22T13:27:28.859Z,99388.39
2023-01-22T13:30:15.042Z,99394.61
2023-01-22T13:32:41.898Z,99391.48
2023-01-22T13:35:12.367Z,99390.48
2023-01-22T13:37:42.416Z,99387.17
2023-01-22T13:40:22.214Z,99388.52
2023-01-22T13:42:49.885Z,99393.79
2023-01-22T13:45:21.924Z,99388.83
2023-01-22T13:47:49.421Z,99401.31
2023-01-22T13:50:21.328Z,99406.52
2023-01-22T13:52:51.841Z,99407.85
2023-01-22T13:55:23.287Z,99400.91
2023-01-22T13:57:52.245Z,99401.11
2023-01-22T14:00:22.043Z,99399.63
2023-01-22T14:02:49.209Z,99406.11
2023-01-22T14:05:24.316Z,99405.77
2023-01-22T14:07:52.555Z,99406.11
2023-01-22T14:10:24.278Z,99403.90
2023-01-22T14:13:00.243Z,99401.57
2023-01-22T14:15:27.186Z,99414.24
2023-01-22T14:17:54.415Z,99419.86
2023-01-22T14:20:21.934Z,99427.03
2023-01-22T14:22:48.936Z,99429.36
2023-01-22T14:25:15.931Z,99425.16
2023-01-22T14:27:45.063Z,99425.19
2023-01-22T14:30:14.957Z,99430.02
2023-01-22T14:32:42.757Z,99432.80
2023-01-22T14:35:17.748Z,99436.52
2023-01-22T14:37:44.844Z,99442.17
2023-01-22T14:40:13.897Z,99446.05
2023-01-22T14:42:41.864Z,99448.52
2023-01-22T14:45:10.535Z,99445.87
2023-01-22T14:47:38.212Z,99446.70
2023-01-22T14:50:06.135Z,99452.17
2023-01-22T14:52:33.482Z,99457.29
2023-01-22T14:55:06.835Z,99458.38
2023-01-22T14:57:33.888Z,99460.70
2023-01-22T15:00:01.996Z,99463.64
2023-01-22T15:02:28.932Z,99461.91
2023-01-22T15:04:56.554Z,99464.25
2023-01-22T15:07:23.627Z,99474.98
2023-01-22T15:09:50.659Z,99478.31
2023-01-22T15:12:17.584Z,99480.33
2023-01-22T15:14:44.746Z,99486.09
2023-01-22T15:17:11.670Z,99488.63
2023-01-22T15:19:41.443Z,99490.77
2023-01-22T15:22:08.838Z,99496.79
2023-01-22T15:24:36.535Z,99496.45
2023-01-22T15:27:03.436Z,99500.73
2023-01-22T15:29:30.753Z,99505.02
2023-01-22T15:31:58.654Z,99502.81
2023-01-22T15:34:25.720Z,99507.98
2023-01-22T15:36:53.053Z,99513.56
2023-01-22T15:39:20.280Z,99511.34
2023-01-22T15:41:47.664Z,99515.91
2023-01-22T15:44:15.100Z,99517.25
2023-01-22T15:46:42.970Z,99518.34
2023-01-22T15:49:12.536Z,99519.91
2023-01-22T15:51:40.520Z,99518.58
2023-01-22T15:54:08.044Z,99522.80
2023-01-22T15:56:36.461Z,99526.82
2023-01-22T15:59:03.930Z,99530.52
2023-01-22T16:01:31.289Z,99537.35
2023-01-22T16:03:58.238Z,99541.48
2023-01-22T16:06:26.529Z,99541.26
2023-01-22T16:08:55.320Z,99543.20
2023-01-22T16:11:22.956Z,99547.09
2023-01-22T16:13:50.115Z,99550.46
2023-01-22T16:16:37.215Z,99551.51
2023-01-22T16:19:05.949Z,99556.02
2023-01-22T16:21:33.684Z,99549.08
2023-01-22T16:24:01.877Z,99546.70
2023-01-22T16:26:30.438Z,99546.83
2023-01-22T16:28:59.557Z,99552.71
2023-01-22T16:31:27.782Z,99552.32
2023-01-22T16:33:56.559Z,99556.17
2023-01-22T16:36:24.549Z,99559.52
2023-01-22T16:38:51.796Z,99560.64
2023-01-22T16:41:25.066Z,99561.92
2023-01-22T16:43:53.953Z,99564.10
2023-01-22T16:46:22.238Z,99573.45
2023-01-22T16:48:50.028Z,99578.63
2023-01-22T16:51:23.426Z,99580.10
2023-01-22T16:53:51.743Z,99586.62
2023-01-22T16:56:18.825Z,99591.28
2023-01-22T16:58:45.791Z,99586.09
2023-01-22T17:01:14.015Z,99592.39
2023-01-22T17:03:41.174Z,99595.52
2023-01-22T17:06:11.593Z,99596.42
2023-01-22T17:08:38.535Z,99598.70
2023-01-22T17:11:06.807Z,99608.48
2023-01-22T17:13:34.029Z,99609.06
2023-01-22T17:16:03.806Z,99607.95
2023-01-22T17:18:31.304Z,99612.96
2023-01-22T17:21:02.622Z,99612.75
2023-01-22T17:23:29.816Z,99617.28
2023-01-22T17:25:56.865Z,99619.77
2023-01-22T17:28:23.805Z,99623.48
2023-01-22T17:30:51.161Z,99627.40
2023-01-22T17:33:21.177Z,99628.17
2023-01-22T17:35:47.959Z,99637.59
2023-01-22T17:38:15.147Z,99638.87
2023-01-22T17:40:43.543Z,99641.27
2023-01-22T17:43:10.379Z,99647.59
2023-01-22T17:45:40.700Z,99654.23
2023-01-22T17:48:08.048Z,99652.04
2023-01-22T17:50:34.950Z,99652.39
2023-01-22T17:53:01.754Z,99648.77
2023-01-22T17:55:29.390Z,99652.11
2023-01-22T17:57:56.953Z,99656.17
2023-01-22T18:00:23.894Z,99659.70
2023-01-22T18:02:51.288Z,99667.45
2023-01-22T18:05:18.480Z,99673.94
2023-01-22T18:07:46.157Z,99680.69
2023-01-22T18:10:14.116Z,99685.77
2023-01-22T18:12:40.956Z,99682.14
2023-01-22T18:15:08.216Z,99686.91
2023-01-22T18:17:35.504Z,99686.12
2023-01-22T18:20:03.848Z,99688.60
2023-01-22T18:22:31.083Z,99691.91
2023-01-22T18:24:59.471Z,99695.52
2023-01-22T18:27:26.621Z,99699.96
2023-01-22T18:29:53.581Z,99701.60
2023-01-22T18:32:21.970Z,99705.64
2023-01-22T18:34:48.972Z,99712.11
2023-01-22T18:37:15.810Z,99715.33
2023-01-22T18:39:43.100Z,99719.52
2023-01-22T18:42:10.139Z,99723.84
2023-01-22T18:44:39.202Z,99724.63
2023-01-22T18:47:11.515Z,99722.69
2023-01-22T18:49:38.778Z,99716.84
2023-01-22T18:52:05.864Z,99721.00
2023-01-22T18:54:33.466Z,99717.75
2023-01-22T18:57:00.367Z,99719.77
2023-01-22T18:59:27.402Z,99719.82
2023-01-22T19:01:54.720Z,99713.13
2023-01-22T19:04:22.438Z,99716.49
2023-01-22T19:06:53.910Z,99721.17
2023-01-22T19:09:21.369Z,99727.63
2023-01-22T19:11:48.777Z,99732.14
2023-01-22T19:14:17.520Z,99730.40
2023-01-22T19:16:45.326Z,99731.20
2023-01-22T19:19:14.106Z,99734.70
2023-01-22T19:21:43.412Z,99737.02
2023-01-22T19:24:10.654Z,99737.57
2023-01-22T19:26:39.112Z,99741.60
2023-01-22T19:29:08.048Z,99746.35
2023-01-22T19:31:37.086Z,99746.02
2023-01-22T19:34:04.988Z,99743.72
2023-01-22T19:36:33.486Z,99743.21
2023-01-22T19:39:01.328Z,99733.54
2023-01-22T19:41:28.683Z,99733.61
2023-01-22T19:43:56.823Z,99733.02
2023-01-22T19:46:24.112Z,99737.76
2023-01-22T19:48:51.179Z,99738.82
2023-01-22T19:51:18.726Z,99734.45
2023-01-22T19:53:45.816Z,99737.33
2023-01-22T19:56:16.711Z,99742.16
2023-01-22T19:58:43.730Z,99752.89
2023-01-22T20:01:12.090Z,99755.48
2023-01-22T20:03:48.622Z,99759.80
2023-01-22T20:06:25.194Z,99766.36
2023-01-22T20:08:52.837Z,99763.36
2023-01-22T20:11:19.964Z,99763.67
2023-01-22T20:13:47.879Z,99761.65
2023-01-22T20:16:24.536Z,99763.41
2023-01-22T20:18:52.534Z,99766.18
2023-01-22T20:21:24.465Z,99771.79
2023-01-22T20:24:02.374Z,99774.25
2023-01-22T20:26:29.826Z,99774.53
2023-01-22T20:28:56.780Z,99780.91
2023-01-22T20:31:24.056Z,99779.80
2023-01-22T20:33:52.854Z,99783.86
2023-01-22T20:36:20.862Z,99782.86
2023-01-22T20:38:52.606Z,99788.64
2023-01-22T20:41:20.168Z,99789.47
2023-01-22T20:43:47.022Z,99789.55
2023-01-22T20:46:16.359Z,99789.91
2023-01-22T20:48:44.058Z,99788.48
2023-01-22T20:51:19.112Z,99790.58
2023-01-22T20:53:47.352Z,99789.88
2023-01-22T20:56:19.658Z,99788.67
2023-01-22T20:58:47.044Z,99790.98
2023-01-22T21:01:16.077Z,99795.28
2023-01-22T21:03:44.012Z,99802.13
2023-01-22T21:06:13.866Z,99808.41
2023-01-22T21:08:41.783Z,99810.13
2023-01-22T21:11:10.068Z,99814.19
2023-01-22T21:13:37.342Z,99811.55
2023-01-22T21:16:15.034Z,99814.30
2023-01-22T21:18:44.711Z,99812.98
2023-01-22T21:21:13.344Z,99819.30
2023-01-22T21:23:40.698Z,99825.35
2023-01-22T21:26:09.361Z,99830.35
2023-01-22T21:28:36.787Z,99831.98
2023-01-22T21:31:14.192Z,99839.27
2023-01-22T21:33:42.049Z,99842.58
2023-01-22T21:36:09.477Z,99853.92
2023-01-22T21:38:36.736Z,99865.04
2023-01-22T21:41:04.792Z,99874.75
2023-01-22T21:43:50.895Z,99880.99
2023-01-22T21:46:25.625Z,99881.83
2023-01-22T21:48:53.490Z,99875.59
2023-01-22T21:51:21.157Z,99876.77
2023-01-22T21:53:48.185Z,99891.02
2023-01-22T21:56:15.190Z,99892.13
2023-01-22T21:58:46.166Z,99891.07
2023-01-22T22:01:18.279Z,99889.97
2023-01-22T22:03:45.422Z,99891.41
2023-01-22T22:06:13.830Z,99892.15
2023-01-22T22:08:43.834Z,99890.31
2023-01-22T22:11:11.684Z,99891.39
2023-01-22T22:13:39.396Z,99891.77
2023-01-22T22:16:07.771Z,99894.89
2023-01-22T22:18:35.228Z,99891.20
2023-01-22T22:21:03.982Z,99893.27
2023-01-22T22:23:31.287Z,99894.16
2023-01-22T22:25:58.778Z,99892.29
2023-01-22T22:28:25.859Z,99886.81
2023-01-22T22:30:53.048Z,99878.66
2023-01-22T22:33:20.379Z,99873.25
2023-01-22T22:35:47.725Z,99866.13
2023-01-22T22:38:15.445Z,99868.10
2023-01-22T22:40:42.454Z,99865.84
2023-01-22T22:43:09.846Z,99867.84
2023-01-22T22:45:38.053Z,99868.41
2023-01-22T22:48:05.832Z,99865.83
2023-01-22T22:50:32.748Z,99866.84
2023-01-22T22:52:59.737Z,99874.02
2023-01-22T22:55:29.100Z,99879.48
2023-01-22T22:57:56.036Z,99883.51
2023-01-22T23:00:23.015Z,99889.36
2023-01-22T23:02:49.900Z,99898.67
2023-01-22T23:05:17.107Z,99905.13
2023-01-22T23:07:44.383Z,99903.73
2023-01-22T23:10:29.112Z,99901.90
2023-01-22T23:12:57.755Z,99904.73
2023-01-22T23:15:26.152Z,99899.61
2023-01-22T23:17:54.297Z,99897.38
2023-01-22T23:20:21.430Z,99900.40
2023-01-22T23:22:50.070Z,99901.30
2023-01-22T23:25:17.499Z,99898.91
2023-01-22T23:27:44.721Z,99897.80
2023-01-22T23:30:12.609Z,99895.15
2023-01-22T23:32:40.055Z,99897.56
2023-01-22T23:35:07.215Z,99908.28
2023-01-22T23:37:34.010Z,99911.56
2023-01-22T23:40:00.703Z,99915.98
2023-01-22T23:42:27.450Z,99920.12
2023-01-22T23:44:54.221Z,99928.68
2023-01-22T23:47:21.257Z,99937.42
2023-01-22T23:49:48.142Z,99939.55
2023-01-22T23:52:14.940Z,99938.98
2023-01-22T23:54:41.817Z,99936.94
2023-01-22T23:57:08.621Z,99939.73
2023-01-22T23:59:35.498Z,99941.35
